createdAt,value
2023-01-23T00:00:21.227Z,25.73
2023-01-23T00:02:50.143Z,26.37
2023-01-23T00:05:19.392Z,27.33
2023-01-23T00:07:48.921Z,27.97
2023-01-23T00:10:18.841Z,28.70
2023-01-23T00:12:49.324Z,30.83
2023-01-23T00:15:18.595Z,26.47
2023-01-23T00:17:48.497Z,29.43
2023-01-23T00:20:17.439Z,29.90
2023-01-23T00:22:46.453Z,30.47
2023-01-23T00:25:15.213Z,33.63
2023-01-23T00:28:24.059Z,30.23
2023-01-23T00:30:52.900Z,33.47
2023-01-23T00:33:21.625Z,31.73
2023-01-23T00:35:50.316Z,29.57
2023-01-23T00:38:19.069Z,34.53
2023-01-23T00:40:48.092Z,32.87
2023-01-23T00:43:16.858Z,33.20
2023-01-23T00:45:47.002Z,33.43
2023-01-23T00:48:15.825Z,34.60
2023-01-23T00:50:45.408Z,35.90
2023-01-23T00:53:14.470Z,35.13
2023-01-23T00:55:43.972Z,35.27
2023-01-23T00:58:59.056Z,30.33
2023-01-23T01:01:31.614Z,35.87
2023-01-23T01:04:02.384Z,36.23
2023-01-23T01:06:31.362Z,35.67
2023-01-23T01:09:01.189Z,36.13
2023-01-23T01:11:30.037Z,55.67
2023-01-23T01:14:01.516Z,36.70
2023-01-23T01:16:32.367Z,39.63
2023-01-23T01:19:01.846Z,40.13
2023-01-23T01:21:31.228Z,37.83
2023-01-23T01:23:59.954Z,36.20
2023-01-23T01:26:29.573Z,38.30
2023-01-23T01:28:58.792Z,39.23
2023-01-23T01:31:28.224Z,34.67
2023-01-23T01:33:58.470Z,35.37
2023-01-23T01:36:27.584Z,39.63
2023-01-23T01:38:56.392Z,36.53
2023-01-23T01:41:27.099Z,40.70
2023-01-23T01:44:00.545Z,38.67
2023-01-23T01:46:32.440Z,37.83
2023-01-23T01:49:10.516Z,39.40
2023-01-23T01:51:47.723Z,35.30
2023-01-23T01:54:25.393Z,45.37
2023-01-23T01:57:02.185Z,42.20
2023-01-23T01:59:41.769Z,44.10
2023-01-23T02:02:15.858Z,43.47
2023-01-23T02:04:52.733Z,38.37
2023-01-23T02:07:29.342Z,51.87
2023-01-23T02:09:58.986Z,49.03
2023-01-23T02:12:28.873Z,46.30
2023-01-23T02:14:57.943Z,43.37
2023-01-23T02:17:27.037Z,39.10
2023-01-23T02:20:09.049Z,64.57
2023-01-23T02:22:50.278Z,50.77
2023-01-23T02:25:30.376Z,38.47
2023-01-23T02:28:01.569Z,45.37
2023-01-23T02:30:32.145Z,41.50
2023-01-23T02:33:11.103Z,43.80
2023-01-23T02:35:40.876Z,46.73
2023-01-23T03:44:59.744Z,36.43
2023-01-23T03:47:32.486Z,36.70
2023-01-23T03:50:01.711Z,38.77
2023-01-23T03:52:38.020Z,35.13
2023-01-23T03:55:08.539Z,38.77
2023-01-23T03:57:38.437Z,32.60
2023-01-23T04:00:27.271Z,32.70
2023-01-23T04:03:29.850Z,33.40
2023-01-23T04:06:00.288Z,35.93
2023-01-23T04:08:29.768Z,35.27
2023-01-23T04:11:05.477Z,35.90
2023-01-23T04:13:34.377Z,35.83
2023-01-23T04:16:06.779Z,32.70
2023-01-23T04:18:36.091Z,33.47
2023-01-23T04:21:10.525Z,32.50
2023-01-23T04:23:50.373Z,32.60
2023-01-23T04:26:21.354Z,28.90
2023-01-23T04:28:52.776Z,30.67
2023-01-23T04:31:23.266Z,37.23
2023-01-23T04:33:52.388Z,36.27
2023-01-23T04:36:23.535Z,36.10
2023-01-23T04:39:17.033Z,33.33
2023-01-23T04:41:50.863Z,34.77
2023-01-23T04:44:39.834Z,35.37
2023-01-23T04:47:28.887Z,29.93
2023-01-23T04:55:01.716Z,29.17
2023-01-23T04:57:29.384Z,32.77
2023-01-23T05:00:19.295Z,29.00
2023-01-23T05:02:49.267Z,34.17
2023-01-23T05:05:21.308Z,35.10
2023-01-23T05:07:53.768Z,33.60
2023-01-23T05:10:24.053Z,33.73
2023-01-23T05:12:53.783Z,36.27
2023-01-23T05:15:24.032Z,35.40
2023-01-23T05:17:53.381Z,34.87
2023-01-23T05:20:42.585Z,34.03
2023-01-23T05:24:10.682Z,33.63
2023-01-23T05:26:41.367Z,38.97
2023-01-23T05:30:28.696Z,35.10
2023-01-23T05:33:13.184Z,35.73
2023-01-23T05:35:52.732Z,37.80
2023-01-23T05:38:21.708Z,33.40
2023-01-23T05:40:50.921Z,35.17
2023-01-23T05:44:22.210Z,36.17
2023-01-23T05:47:53.165Z,36.53
2023-01-23T05:50:24.785Z,36.63
2023-01-23T05:52:56.763Z,37.30
2023-01-23T05:55:26.887Z,40.93
2023-01-23T05:57:57.894Z,36.30
2023-01-23T06:00:28.509Z,41.70
2023-01-23T06:03:17.520Z,34.07
2023-01-23T06:06:03.029Z,33.67
2023-01-23T06:08:31.843Z,40.67
2023-01-23T06:11:01.338Z,42.03
2023-01-23T06:13:30.886Z,41.00
2023-01-23T06:16:01.902Z,38.47
2023-01-23T06:19:01.482Z,45.67
2023-01-23T06:21:32.841Z,44.23
2023-01-23T06:24:02.081Z,45.03
2023-01-23T06:26:31.300Z,42.00
2023-01-23T06:29:00.227Z,43.73
2023-01-23T06:31:32.611Z,37.63
2023-01-23T06:34:03.268Z,41.27
2023-01-23T06:36:38.028Z,40.70
2023-01-23T06:39:06.846Z,36.07
2023-01-23T06:41:41.507Z,35.30
2023-01-23T06:44:12.341Z,39.53
2023-01-23T06:46:43.258Z,40.37
2023-01-23T06:49:12.199Z,38.80
2023-01-23T06:51:40.927Z,30.63
2023-01-23T06:54:12.235Z,37.57
2023-01-23T06:56:41.685Z,33.00
2023-01-23T06:59:12.208Z,35.63
2023-01-23T07:01:43.876Z,42.07
2023-01-23T07:04:25.967Z,42.80
2023-01-23T07:06:54.727Z,40.97
2023-01-23T07:09:23.479Z,41.37
2023-01-23T07:12:01.856Z,34.80
2023-01-23T07:14:33.221Z,39.03
2023-01-23T07:17:03.358Z,40.57
2023-01-23T07:19:33.043Z,41.03
2023-01-23T07:22:02.658Z,42.77
2023-01-23T07:24:32.547Z,38.30
2023-01-23T07:27:01.368Z,42.17
2023-01-23T07:29:30.012Z,42.37
2023-01-23T07:32:02.187Z,36.17
2023-01-23T07:34:30.873Z,37.20
2023-01-23T07:36:59.828Z,83.40
2023-01-23T07:39:28.516Z,51.93
2023-01-23T07:41:57.151Z,35.73
2023-01-23T07:44:30.177Z,40.67
2023-01-23T07:46:58.947Z,38.47
2023-01-23T07:49:29.079Z,41.10
2023-01-23T07:51:57.760Z,43.27
2023-01-23T07:54:26.501Z,36.40
2023-01-23T07:56:55.201Z,40.00
2023-01-23T07:59:23.992Z,41.03
2023-01-23T08:01:52.755Z,38.33
2023-01-23T08:04:21.512Z,39.93
2023-01-23T08:06:51.672Z,39.43
2023-01-23T08:09:20.337Z,45.83
2023-01-23T08:11:49.049Z,37.83
2023-01-23T08:14:17.743Z,39.57
2023-01-23T08:16:49.464Z,37.47
2023-01-23T08:19:18.745Z,40.87
2023-01-23T08:21:47.903Z,35.83
2023-01-23T08:24:18.142Z,37.50
2023-01-23T08:26:47.364Z,43.53
2023-01-23T08:29:16.141Z,46.60
2023-01-23T08:31:44.881Z,45.63
2023-01-23T08:34:13.695Z,46.30
2023-01-23T08:36:43.217Z,49.47
2023-01-23T08:39:11.899Z,50.00
2023-01-23T08:41:41.965Z,47.40
2023-01-23T08:44:10.695Z,51.10
2023-01-23T08:46:39.544Z,55.47
2023-01-23T08:49:09.335Z,55.27
2023-01-23T08:51:39.846Z,58.13
2023-01-23T08:54:08.547Z,55.23
2023-01-23T08:56:37.195Z,61.53
2023-01-23T08:59:07.297Z,61.73
2023-01-23T09:01:36.075Z,50.60
2023-01-23T09:04:04.772Z,53.17
2023-01-23T09:06:33.397Z,58.43
2023-01-23T09:09:02.045Z,55.17
2023-01-23T09:11:30.707Z,56.27
2023-01-23T09:14:00.325Z,54.67
2023-01-23T09:16:30.504Z,50.27
2023-01-23T09:18:59.211Z,54.30
2023-01-23T09:21:27.912Z,53.47
2023-01-23T09:23:58.062Z,54.77
2023-01-23T09:26:26.715Z,54.90
2023-01-23T09:28:56.863Z,51.47
2023-01-23T09:31:25.702Z,55.03
2023-01-23T09:33:55.759Z,56.20
2023-01-23T09:36:41.358Z,51.50
2023-01-23T09:39:10.665Z,45.03
2023-01-23T09:41:42.325Z,46.10
2023-01-23T09:44:20.065Z,47.63
2023-01-23T09:46:57.871Z,40.80
2023-01-23T09:49:37.231Z,41.30
2023-01-23T09:52:15.272Z,45.13
2023-01-23T09:54:47.265Z,44.23
2023-01-23T09:57:20.595Z,42.47
2023-01-23T10:00:00.351Z,48.33
2023-01-23T10:02:30.049Z,48.67
2023-01-23T10:05:03.033Z,45.20
2023-01-23T10:08:00.443Z,43.67
2023-01-23T10:10:59.627Z,47.03
2023-01-23T10:13:55.865Z,45.83
2023-01-23T10:16:58.020Z,47.80
2023-01-23T10:19:49.614Z,47.90
2023-01-23T10:22:36.236Z,43.87
2023-01-23T10:25:17.515Z,47.93
2023-01-23T10:27:49.893Z,40.87
2023-01-23T10:30:27.850Z,44.80
2023-01-23T10:33:05.390Z,44.63
2023-01-23T10:35:47.283Z,43.77
2023-01-23T10:38:28.996Z,41.33
2023-01-23T10:41:21.171Z,40.83
2023-01-23T10:43:54.428Z,43.23
2023-01-23T10:46:31.759Z,41.13
2023-01-23T10:49:03.019Z,42.80
2023-01-23T10:51:36.095Z,41.67
2023-01-23T10:54:17.008Z,44.00
2023-01-23T10:57:00.530Z,42.03
2023-01-23T10:59:35.790Z,44.20
2023-01-23T11:02:27.827Z,42.10
2023-01-23T11:04:57.332Z,42.97
2023-01-23T11:07:28.739Z,43.63
2023-01-23T11:10:02.313Z,42.33
2023-01-23T11:12:33.692Z,42.03
2023-01-23T11:15:25.946Z,45.03
2023-01-23T11:17:57.268Z,40.87
2023-01-23T11:20:31.970Z,41.20
2023-01-23T11:23:14.317Z,38.57
2023-01-23T11:25:46.181Z,40.53
2023-01-23T11:28:30.768Z,41.53
2023-01-23T11:31:15.737Z,38.87
2023-01-23T11:33:55.129Z,45.97
2023-01-23T11:36:46.738Z,41.10
2023-01-23T11:39:38.856Z,38.23
2023-01-23T11:42:12.508Z,38.03
2023-01-23T11:44:46.458Z,41.30
2023-01-23T11:48:07.839Z,42.27
2023-01-23T11:50:54.930Z,38.30
2023-01-23T11:53:43.015Z,40.53
2023-01-23T11:56:43.982Z,41.23
2023-01-23T11:59:57.421Z,35.93
2023-01-23T12:03:30.217Z,36.77
2023-01-23T12:06:23.506Z,36.90
2023-01-23T12:09:03.536Z,34.57
2023-01-23T12:11:45.719Z,37.13
2023-01-23T12:14:27.376Z,34.03
2023-01-23T12:17:13.136Z,35.80
2023-01-23T12:20:04.776Z,38.70
2023-01-23T12:22:51.765Z,37.20
2023-01-23T12:25:32.644Z,37.30
2023-01-23T12:28:18.066Z,37.07
2023-01-23T12:31:12.162Z,36.07
2023-01-23T12:34:11.887Z,36.73
2023-01-23T12:37:29.892Z,36.43
2023-01-23T12:40:12.119Z,35.20
2023-01-23T12:42:51.935Z,37.57
2023-01-23T12:45:24.739Z,43.40
2023-01-23T12:48:08.490Z,37.27
2023-01-23T12:50:48.038Z,37.47
2023-01-23T12:53:20.224Z,39.27
2023-01-23T12:56:00.368Z,42.23
2023-01-23T12:58:36.693Z,38.43
2023-01-23T13:01:24.134Z,37.13
2023-01-23T13:04:07.916Z,42.00
2023-01-23T13:07:03.870Z,41.10
2023-01-23T13:09:51.405Z,39.43
2023-01-23T13:12:24.885Z,36.53
2023-01-23T13:15:12.983Z,40.83
2023-01-23T13:17:50.786Z,41.53
2023-01-23T13:20:49.347Z,40.10
2023-01-23T13:23:25.375Z,45.07
2023-01-23T13:26:32.632Z,42.23
2023-01-23T13:29:04.179Z,42.80
2023-01-23T13:31:41.393Z,42.53
2023-01-23T13:34:41.669Z,44.77
2023-01-23T13:37:52.272Z,46.90
2023-01-23T13:40:24.435Z,46.83
2023-01-23T13:42:53.423Z,45.70
2023-01-23T13:45:33.102Z,44.63
2023-01-23T14:22:43.379Z,54.47
2023-01-23T14:25:19.808Z,54.03
2023-01-23T14:27:56.010Z,56.13
2023-01-23T14:30:34.282Z,52.30
2023-01-23T14:33:13.321Z,52.80
2023-01-23T14:35:44.677Z,54.77
2023-01-23T14:38:26.021Z,57.93
2023-01-23T14:40:59.135Z,57.27
2023-01-23T14:44:21.923Z,54.50
2023-01-23T14:47:04.314Z,59.53
2023-01-23T14:49:41.956Z,63.23
2023-01-23T14:53:30.948Z,60.83
2023-01-23T14:56:05.757Z,52.60
2023-01-23T14:58:35.825Z,57.20
2023-01-23T15:01:05.524Z,59.37
2023-01-23T15:03:40.343Z,60.97
2023-01-23T15:06:21.705Z,55.43
2023-01-23T15:08:52.473Z,64.60
2023-01-23T15:11:33.952Z,72.10
2023-01-23T15:14:05.095Z,59.43
2023-01-23T15:16:38.245Z,63.50
2023-01-23T15:19:25.512Z,54.53
2023-01-23T15:22:09.642Z,57.47
2023-01-23T15:24:40.498Z,62.27
2023-01-23T15:27:28.103Z,60.53
2023-01-23T15:30:40.941Z,64.80
2023-01-23T15:33:41.517Z,67.03
2023-01-23T15:36:30.625Z,72.80
2023-01-23T15:39:04.941Z,67.20
2023-01-23T15:41:45.473Z,70.10
2023-01-23T15:44:28.678Z,95.23
2023-01-23T15:47:01.198Z,71.30
2023-01-23T15:49:31.122Z,90.27
2023-01-23T15:52:02.695Z,76.97
2023-01-23T15:54:38.389Z,79.87
2023-01-23T15:57:09.130Z,77.37
2023-01-23T15:59:39.667Z,71.27
2023-01-23T16:02:29.610Z,100.00
2023-01-23T16:05:05.443Z,67.93
2023-01-23T16:07:41.217Z,78.97
2023-01-23T16:10:21.861Z,91.83
2023-01-23T16:13:18.629Z,159.20
2023-01-23T16:15:48.666Z,85.87
2023-01-23T16:18:18.899Z,69.43
2023-01-23T16:20:48.908Z,108.60
2023-01-23T16:23:22.213Z,77.07
2023-01-23T16:25:53.551Z,73.70
2023-01-23T16:28:26.937Z,95.67
2023-01-23T16:31:01.758Z,82.70
2023-01-23T16:33:30.799Z,83.40
2023-01-23T16:36:04.963Z,67.73
2023-01-23T16:38:35.531Z,69.90
2023-01-23T16:41:06.814Z,85.57
2023-01-23T16:43:35.886Z,73.53
2023-01-23T16:46:05.959Z,145.83
2023-01-23T16:48:36.083Z,75.43
2023-01-23T16:51:12.776Z,81.53
2023-01-23T16:53:50.793Z,88.97
2023-01-23T16:56:29.859Z,92.03
2023-01-23T16:59:00.193Z,70.93
2023-01-23T17:01:31.012Z,76.27
2023-01-23T17:04:04.192Z,76.80
2023-01-23T17:06:33.908Z,71.43
2023-01-23T17:09:04.258Z,65.27
2023-01-23T17:11:43.246Z,122.67
2023-01-23T17:14:18.979Z,68.57
2023-01-23T17:16:53.034Z,91.03
2023-01-23T17:19:31.813Z,85.13
2023-01-23T17:22:04.889Z,79.17
2023-01-23T17:24:33.853Z,69.73
2023-01-23T17:27:04.109Z,76.17
2023-01-23T17:29:33.052Z,63.07
2023-01-23T17:32:01.974Z,66.60
2023-01-23T17:34:48.925Z,64.70
2023-01-23T17:37:22.848Z,64.17
2023-01-23T17:39:51.905Z,68.77
2023-01-23T17:42:22.603Z,61.93
2023-01-23T17:44:51.704Z,62.00
2023-01-23T17:47:20.913Z,64.20
2023-01-23T17:49:54.845Z,54.17
2023-01-23T17:52:25.021Z,57.50
2023-01-23T17:54:54.603Z,61.93
2023-01-23T17:57:24.782Z,63.23
2023-01-23T17:59:55.663Z,55.80
2023-01-23T18:02:29.769Z,58.90
2023-01-23T18:04:59.965Z,62.80
2023-01-23T18:07:28.852Z,56.57
2023-01-23T18:09:57.873Z,79.00
2023-01-23T18:12:41.232Z,53.57
2023-01-23T18:15:18.211Z,53.37
2023-01-23T18:18:22.574Z,56.53
2023-01-23T18:20:54.730Z,57.43
2023-01-23T18:23:25.564Z,52.23
2023-01-23T18:26:11.155Z,53.70
2023-01-23T18:28:53.417Z,61.77
2023-01-23T18:31:40.076Z,62.33
2023-01-23T18:34:30.661Z,72.90
2023-01-23T18:37:15.498Z,65.77
2023-01-23T18:40:12.343Z,58.77
2023-01-23T18:42:56.139Z,58.93
2023-01-23T18:45:28.024Z,62.47
2023-01-23T18:47:58.064Z,60.97
2023-01-23T18:50:29.973Z,58.83
2023-01-23T18:53:17.709Z,77.47
2023-01-23T18:56:14.400Z,64.20
2023-01-23T18:59:11.128Z,67.70
2023-01-23T19:02:23.407Z,56.00
2023-01-23T19:05:32.193Z,54.23
2023-01-23T19:08:37.917Z,57.97
2023-01-23T19:11:37.670Z,52.97
2023-01-23T19:14:22.355Z,57.23
2023-01-23T19:17:16.614Z,55.70
2023-01-23T19:20:00.485Z,51.63
2023-01-23T19:22:49.374Z,58.40
2023-01-23T19:25:20.524Z,55.97
2023-01-23T19:28:16.569Z,53.10
2023-01-23T19:30:51.583Z,59.60
2023-01-23T19:33:35.146Z,64.27
2023-01-23T19:36:11.301Z,55.03
2023-01-23T19:38:40.238Z,51.63
2023-01-23T19:41:25.533Z,55.13
2023-01-23T19:43:57.203Z,51.63
2023-01-23T19:46:31.035Z,56.53
2023-01-23T19:49:04.356Z,56.33
2023-01-23T19:51:36.795Z,51.03
2023-01-23T19:54:09.692Z,56.53
2023-01-23T19:56:46.433Z,54.50
2023-01-23T19:59:15.329Z,56.13
2023-01-23T20:01:48.605Z,56.20
2023-01-23T20:04:24.966Z,53.37
2023-01-23T20:06:54.870Z,50.60
2023-01-23T20:09:24.006Z,56.63
2023-01-23T20:11:53.074Z,54.30
2023-01-23T20:14:23.618Z,55.83
2023-01-23T20:16:52.914Z,66.03
2023-01-23T20:19:23.636Z,56.07
2023-01-23T20:21:52.372Z,53.17
2023-01-23T20:24:21.353Z,61.67
2023-01-23T20:26:50.138Z,57.03
2023-01-23T20:29:18.889Z,55.67
2023-01-23T20:31:47.813Z,56.70
2023-01-23T20:34:16.664Z,55.50
2023-01-23T20:36:46.986Z,60.10
2023-01-23T20:39:16.367Z,52.53
2023-01-23T20:41:48.434Z,53.83
2023-01-23T20:44:17.458Z,57.40
2023-01-23T20:46:46.210Z,55.80
2023-01-23T20:49:15.719Z,61.73
2023-01-23T20:51:46.232Z,52.83
2023-01-23T20:54:15.110Z,54.60
2023-01-23T20:56:45.889Z,57.33
2023-01-23T20:59:19.430Z,56.00
2023-01-23T21:02:05.758Z,56.00
2023-01-23T21:04:36.911Z,55.90
2023-01-23T21:07:07.121Z,54.03
2023-01-23T21:09:35.830Z,53.57
2023-01-23T21:12:04.990Z,54.70
2023-01-23T21:14:33.676Z,54.57
2023-01-23T21:17:02.600Z,59.70
2023-01-23T21:19:31.368Z,54.30
2023-01-23T21:22:00.186Z,57.27
2023-01-23T21:24:34.332Z,57.83
2023-01-23T21:27:03.591Z,58.53
2023-01-23T21:29:33.062Z,54.40
2023-01-23T21:32:02.148Z,58.67
2023-01-23T21:34:32.022Z,57.17
2023-01-23T21:37:00.803Z,58.43
2023-01-23T21:39:31.083Z,61.00
2023-01-23T21:41:59.785Z,63.50
2023-01-23T21:44:28.570Z,61.93
2023-01-23T21:46:57.269Z,69.60
2023-01-23T21:49:26.084Z,61.40
2023-01-23T21:51:54.979Z,67.30
2023-01-23T21:54:23.831Z,60.93
2023-01-23T21:56:53.946Z,62.90
2023-01-23T21:59:22.657Z,62.23
2023-01-23T22:01:50.478Z,73.93
2023-01-23T22:04:22.497Z,62.87
2023-01-23T22:06:55.627Z,65.10
2023-01-23T22:09:26.997Z,73.43
2023-01-23T22:11:57.383Z,64.80
2023-01-23T22:14:26.090Z,62.97
2023-01-23T22:16:54.859Z,57.40
2023-01-23T22:19:25.835Z,61.30
2023-01-23T22:21:55.907Z,63.23
2023-01-23T22:24:25.053Z,63.83
2023-01-23T22:26:53.810Z,66.47
2023-01-23T22:29:24.152Z,60.77
2023-01-23T22:31:53.222Z,64.87
2023-01-23T22:34:22.151Z,64.93
2023-01-23T22:36:50.932Z,68.60
2023-01-23T22:39:20.151Z,68.90
2023-01-23T22:41:50.251Z,68.20
2023-01-23T22:44:19.313Z,66.77
2023-01-23T22:46:52.126Z,64.13
2023-01-23T22:49:20.861Z,76.93
2023-01-23T22:51:51.558Z,62.80
2023-01-23T22:54:20.589Z,73.77
2023-01-23T22:56:49.268Z,71.87
2023-01-23T22:59:18.061Z,64.53
2023-01-23T23:01:48.227Z,65.30
2023-01-23T23:04:17.013Z,70.10
2023-01-23T23:06:45.752Z,74.87
2023-01-23T23:09:14.537Z,67.87
2023-01-23T23:11:44.140Z,68.60
2023-01-23T23:14:12.841Z,72.37
2023-01-23T23:16:42.101Z,66.17
2023-01-23T23:19:12.411Z,66.93
2023-01-23T23:21:41.554Z,63.70
2023-01-23T23:24:14.214Z,66.30
2023-01-23T23:26:43.102Z,68.37
2023-01-23T23:29:11.838Z,64.27
2023-01-23T23:31:40.708Z,74.00
2023-01-23T23:34:09.847Z,60.80
2023-01-23T23:36:39.940Z,67.97
2023-01-23T23:39:08.711Z,64.53
2023-01-23T23:41:37.595Z,60.23
2023-01-23T23:44:06.631Z,65.87
2023-01-23T23:46:35.306Z,60.17
2023-01-23T23:49:04.077Z,65.97
2023-01-23T23:51:32.852Z,59.67
2023-01-23T23:54:03.074Z,60.00
2023-01-23T23:56:32.389Z,59.33
2023-01-23T23:59:01.121Z,71.57
